CheckWX is a tool to help pilots better visualize weather data.  It is not intended as a substitute for an official pre-flight weather briefing.

04:39:07 UTC

EGPI METAR
Islay Airport
Port Ellen, United Kingdom
Current

49 mins ago

EGPI 170350Z AUTO 32012KT 9999 FEW024/// BKN044/// 12/09 Q1025
Observed
Sep-17 @ 03:50 UTC
Wind
  • 320° at 12 KTS
Visibility
10,000+ meters
Flight Rules
VFR
Cloud Levels
  • Few at 2,400' AGL
  • Broken at 4,400' AGL
Temperature
12°C / 54°F
Dewpoint
C / 48°F
Humidity
82%
Altimeter
30.27" Hg
Pressure
1024.92 hPa
Previous

1 hour ago

EGPI 170320Z AUTO 31015KT 9999 FEW030/// SCT036/// BKN041/// 12/09 Q1025
Observed
Sep-17 @ 03:20 UTC
Wind
  • 310° at 15 KTS
Visibility
10,000+ meters
Flight Rules
VFR
Cloud Levels
  • Few at 3,000' AGL
  • Scattered at 3,600' AGL
  • Broken at 4,100' AGL
Temperature
12°C / 54°F
Dewpoint
C / 48°F
Humidity
82%
Altimeter
30.27" Hg
Pressure
1024.92 hPa
Previous

2 hours ago

EGPI 170250Z AUTO 30013KT 9999 FEW023/// BKN045/// 12/08 Q1025
Observed
Sep-17 @ 02:50 UTC
Wind
  • 300° at 13 KTS
Visibility
10,000+ meters
Flight Rules
VFR
Cloud Levels
  • Few at 2,300' AGL
  • Broken at 4,500' AGL
Temperature
12°C / 54°F
Dewpoint
C / 46°F
Humidity
77%
Altimeter
30.27" Hg
Pressure
1024.92 hPa